AEE3K LCLK-LGAV
Flight info
| Callsign | AEE3K |
|---|---|
| Flight time | 1h 27m |
| Altitude | 30000 |
| Route | PHA M31 GENOS DCT PEDER DCT EVENO UM601 RDS UL995 VARIX |
| Aircraft | A320/M-SDE3FGHIRWY/LB1 |
Departure
| Time | 2026-05-04 13:41 |
|---|---|
| Airport | Larnaca International Airport (LCLK) |
Arrival
| Time | 2026-05-04 15:08 |
|---|---|
| Airport | Athens Eleftherios Venizelos International Airport (LGAV) |
| Time | Latitude | Longitude | Altitude | Speed | Heading |
|---|---|---|---|---|---|
| 2026-05-04 13:04 | 34.87071 | 33.61012 | 21 ft | 0 kts | 225° |
| 2026-05-04 13:29 | 34.87075 | 33.61017 | 20 ft | 2 kts | 225° |
| 2026-05-04 13:29 | 34.87089 | 33.61034 | 20 ft | 3 kts | 225° |
| 2026-05-04 13:29 | 34.87103 | 33.61052 | 20 ft | 2 kts | 225° |
| 2026-05-04 13:29 | 34.87115 | 33.61066 | 23 ft | 3 kts | 199° |
| 2026-05-04 13:30 | 34.87132 | 33.61067 | 23 ft | 3 kts | 153° |
| 2026-05-04 13:30 | 34.87148 | 33.61053 | 24 ft | 3 kts | 138° |
| 2026-05-04 13:30 | 34.87159 | 33.61042 | 22 ft | 1 kts | 135° |
| 2026-05-04 13:30 | 34.87159 | 33.61041 | 22 ft | 0 kts | 135° |
| 2026-05-04 13:34 | 34.87152 | 33.61049 | 23 ft | 3 kts | 135° |
| 2026-05-04 13:34 | 34.87124 | 33.61084 | 22 ft | 9 kts | 135° |
| 2026-05-04 13:34 | 34.87063 | 33.61158 | 20 ft | 15 kts | 135° |
| 2026-05-04 13:34 | 34.86982 | 33.61257 | 20 ft | 17 kts | 135° |
| 2026-05-04 13:35 | 34.86957 | 33.61380 | 21 ft | 18 kts | 48° |
| 2026-05-04 13:35 | 34.87148 | 33.61613 | 20 ft | 21 kts | 44° |
| 2026-05-04 13:35 | 34.87257 | 33.61748 | 21 ft | 23 kts | 45° |
| 2026-05-04 13:36 | 34.87377 | 33.61894 | 20 ft | 25 kts | 44° |
| 2026-05-04 13:36 | 34.87487 | 33.62029 | 20 ft | 13 kts | 45° |
| 2026-05-04 13:36 | 34.87507 | 33.62130 | 21 ft | 14 kts | 120° |
| 2026-05-04 13:36 | 34.87541 | 33.62235 | 20 ft | 15 kts | 46° |
| 2026-05-04 13:37 | 34.87619 | 33.62331 | 20 ft | 17 kts | 45° |
| 2026-05-04 13:37 | 34.87707 | 33.62439 | 20 ft | 19 kts | 45° |
| 2026-05-04 13:37 | 34.87807 | 33.62558 | 20 ft | 21 kts | 44° |
| 2026-05-04 13:37 | 34.87912 | 33.62690 | 20 ft | 23 kts | 45° |
| 2026-05-04 13:38 | 34.88022 | 33.62820 | 20 ft | 13 kts | 44° |
| 2026-05-04 13:38 | 34.88093 | 33.62906 | 20 ft | 15 kts | 45° |
| 2026-05-04 13:38 | 34.88173 | 33.63006 | 20 ft | 18 kts | 45° |
| 2026-05-04 13:38 | 34.88264 | 33.63118 | 20 ft | 20 kts | 45° |
| 2026-05-04 13:39 | 34.88367 | 33.63242 | 20 ft | 22 kts | 44° |
| 2026-05-04 13:39 | 34.88435 | 33.63327 | 20 ft | 14 kts | 51° |
| 2026-05-04 13:39 | 34.88409 | 33.63425 | 20 ft | 14 kts | 136° |
| 2026-05-04 13:39 | 34.88375 | 33.63535 | 21 ft | 14 kts | 105° |
| 2026-05-04 13:40 | 34.88311 | 33.63556 | 21 ft | 13 kts | 237° |
| 2026-05-04 13:40 | 34.88275 | 33.63495 | 20 ft | 1 kts | 223° |
| 2026-05-04 13:40 | 34.88260 | 33.63478 | 19 ft | 8 kts | 223° |
| 2026-05-04 13:40 | 34.88081 | 33.63260 | 20 ft | 71 kts | 226° |
| 2026-05-04 13:41 | 34.87590 | 33.62663 | 22 ft | 125 kts | 225° |
| 2026-05-04 13:41 | 34.86877 | 33.61780 | 44 ft | 164 kts | 229° |
| 2026-05-04 13:41 | 34.86099 | 33.60773 | 628 ft | 164 kts | 230° |
| 2026-05-04 13:42 | 34.84536 | 33.58778 | 1925 ft | 163 kts | 233° |
| 2026-05-04 13:42 | 34.83733 | 33.57728 | 2269 ft | 180 kts | 232° |
| 2026-05-04 13:42 | 34.82830 | 33.56541 | 2512 ft | 203 kts | 232° |
| 2026-05-04 13:42 | 34.81808 | 33.55199 | 2822 ft | 228 kts | 232° |
| 2026-05-04 13:43 | 34.80671 | 33.53721 | 3334 ft | 246 kts | 231° |
| 2026-05-04 13:43 | 34.79480 | 33.52192 | 4184 ft | 251 kts | 230° |
| 2026-05-04 13:43 | 34.78272 | 33.50653 | 5110 ft | 253 kts | 230° |
| 2026-05-04 13:43 | 34.77050 | 33.49099 | 5966 ft | 257 kts | 230° |
| 2026-05-04 13:44 | 34.75803 | 33.47512 | 6802 ft | 260 kts | 230° |
| 2026-05-04 13:44 | 34.74553 | 33.45927 | 7705 ft | 260 kts | 230° |
| 2026-05-04 13:44 | 34.73297 | 33.44329 | 8538 ft | 263 kts | 230° |
| 2026-05-04 13:44 | 34.72028 | 33.42710 | 9396 ft | 266 kts | 230° |
| 2026-05-04 13:45 | 34.70751 | 33.41076 | 10169 ft | 270 kts | 230° |
| 2026-05-04 13:45 | 34.69496 | 33.39274 | 10410 ft | 289 kts | 239° |
| 2026-05-04 13:45 | 34.68571 | 33.37042 | 10766 ft | 301 kts | 253° |
| 2026-05-04 13:45 | 34.68115 | 33.34555 | 11393 ft | 304 kts | 265° |
| 2026-05-04 13:46 | 34.68121 | 33.32010 | 12095 ft | 306 kts | 272° |
| 2026-05-04 13:46 | 34.68227 | 33.29379 | 12836 ft | 309 kts | 272° |
| 2026-05-04 13:46 | 34.68334 | 33.26794 | 13578 ft | 312 kts | 272° |
| 2026-05-04 13:46 | 34.68442 | 33.24157 | 14228 ft | 314 kts | 272° |
| 2026-05-04 13:47 | 34.68551 | 33.21450 | 14826 ft | 317 kts | 272° |
| 2026-05-04 13:47 | 34.68660 | 33.18769 | 15405 ft | 320 kts | 272° |
| 2026-05-04 13:47 | 34.68768 | 33.16085 | 15977 ft | 323 kts | 273° |
| 2026-05-04 13:47 | 34.68876 | 33.13344 | 16532 ft | 327 kts | 273° |
| 2026-05-04 13:48 | 34.68984 | 33.10578 | 17107 ft | 330 kts | 273° |
| 2026-05-04 13:48 | 34.69090 | 33.07774 | 17677 ft | 333 kts | 273° |
| 2026-05-04 13:48 | 34.69198 | 33.04944 | 18245 ft | 337 kts | 273° |
| 2026-05-04 13:48 | 34.69307 | 33.02093 | 18750 ft | 340 kts | 273° |
| 2026-05-04 13:49 | 34.69418 | 32.99210 | 19251 ft | 343 kts | 273° |
| 2026-05-04 13:49 | 34.69529 | 32.96288 | 19763 ft | 347 kts | 273° |
| 2026-05-04 13:49 | 34.69640 | 32.93357 | 20269 ft | 350 kts | 273° |
| 2026-05-04 13:49 | 34.69751 | 32.90391 | 20756 ft | 353 kts | 273° |
| 2026-05-04 13:50 | 34.69862 | 32.87401 | 21206 ft | 356 kts | 273° |
| 2026-05-04 13:50 | 34.69973 | 32.84378 | 21660 ft | 359 kts | 273° |
| 2026-05-04 13:50 | 34.70084 | 32.81333 | 22128 ft | 362 kts | 273° |
| 2026-05-04 13:50 | 34.70194 | 32.78262 | 22595 ft | 365 kts | 273° |
| 2026-05-04 13:51 | 34.70305 | 32.75160 | 23058 ft | 368 kts | 273° |
| 2026-05-04 13:51 | 34.70419 | 32.72047 | 23513 ft | 371 kts | 272° |
| 2026-05-04 13:51 | 34.70533 | 32.68906 | 23903 ft | 373 kts | 272° |
| 2026-05-04 13:51 | 34.70647 | 32.65747 | 24310 ft | 375 kts | 272° |
| 2026-05-04 13:52 | 34.70872 | 32.59388 | 25100 ft | 379 kts | 272° |
| 2026-05-04 13:52 | 34.70984 | 32.56173 | 25474 ft | 382 kts | 272° |
| 2026-05-04 13:52 | 34.71097 | 32.52939 | 25866 ft | 383 kts | 272° |
| 2026-05-04 13:53 | 34.71137 | 32.49698 | 26246 ft | 386 kts | 267° |
| 2026-05-04 13:53 | 34.70969 | 32.46477 | 26621 ft | 387 kts | 267° |
| 2026-05-04 13:53 | 34.70795 | 32.43205 | 26999 ft | 389 kts | 267° |
| 2026-05-04 13:54 | 34.70446 | 32.36620 | 27739 ft | 392 kts | 266° |
| 2026-05-04 13:54 | 34.70273 | 32.33314 | 28304 ft | 391 kts | 267° |
| 2026-05-04 13:54 | 34.69920 | 32.26712 | 29119 ft | 393 kts | 266° |
| 2026-05-04 13:55 | 34.69741 | 32.23388 | 29521 ft | 395 kts | 266° |
| 2026-05-04 13:55 | 34.69381 | 32.16710 | 30228 ft | 397 kts | 266° |
| 2026-05-04 13:55 | 34.69201 | 32.13359 | 30536 ft | 399 kts | 266° |
| 2026-05-04 13:56 | 34.69018 | 32.10011 | 30965 ft | 396 kts | 266° |
| 2026-05-04 13:56 | 34.68830 | 32.06671 | 31435 ft | 394 kts | 266° |
| 2026-05-04 13:56 | 34.68454 | 32.00037 | 32230 ft | 393 kts | 266° |
| 2026-05-04 13:57 | 34.68269 | 31.96732 | 32689 ft | 391 kts | 267° |
| 2026-05-04 13:57 | 34.68272 | 31.93438 | 32857 ft | 389 kts | 274° |
| 2026-05-04 13:58 | 34.70717 | 31.84263 | 32885 ft | 386 kts | 296° |
| 2026-05-04 13:58 | 34.74839 | 31.75835 | 32891 ft | 389 kts | 297° |
| 2026-05-04 13:59 | 34.77612 | 31.70185 | 32878 ft | 390 kts | 297° |
| 2026-05-04 14:00 | 34.81751 | 31.61666 | 32884 ft | 390 kts | 297° |
| 2026-05-04 14:00 | 34.85876 | 31.53141 | 32885 ft | 390 kts | 297° |
| 2026-05-04 14:01 | 34.88632 | 31.47446 | 32881 ft | 390 kts | 297° |
| 2026-05-04 14:02 | 34.92758 | 31.38889 | 32882 ft | 391 kts | 297° |
| 2026-05-04 14:02 | 34.95509 | 31.33170 | 32887 ft | 391 kts | 297° |
| 2026-05-04 14:03 | 34.98255 | 31.27451 | 32879 ft | 391 kts | 297° |
| 2026-05-04 14:03 | 35.00998 | 31.21727 | 32872 ft | 391 kts | 298° |
| 2026-05-04 14:04 | 35.05116 | 31.13113 | 32867 ft | 392 kts | 298° |
| 2026-05-04 14:04 | 35.07868 | 31.07361 | 32871 ft | 393 kts | 298° |
| 2026-05-04 14:05 | 35.12008 | 30.98688 | 32878 ft | 395 kts | 298° |
| 2026-05-04 14:06 | 35.14773 | 30.92877 | 32863 ft | 397 kts | 299° |
| 2026-05-04 14:06 | 35.17586 | 30.87059 | 32863 ft | 398 kts | 303° |
| 2026-05-04 14:07 | 35.21256 | 30.81963 | 32864 ft | 401 kts | 311° |
| 2026-05-04 14:07 | 35.25057 | 30.77021 | 32869 ft | 402 kts | 311° |
| 2026-05-04 14:08 | 35.28881 | 30.72026 | 32875 ft | 402 kts | 311° |
| 2026-05-04 14:08 | 35.32722 | 30.66990 | 32875 ft | 402 kts | 311° |
| 2026-05-04 14:09 | 35.38420 | 30.59495 | 32880 ft | 402 kts | 311° |
| 2026-05-04 14:10 | 35.44145 | 30.51989 | 32879 ft | 402 kts | 311° |
| 2026-05-04 14:10 | 35.47964 | 30.46969 | 32890 ft | 402 kts | 311° |
| 2026-05-04 14:11 | 35.51772 | 30.41958 | 32879 ft | 402 kts | 311° |
| 2026-05-04 14:11 | 35.55448 | 30.36627 | 33046 ft | 413 kts | 298° |
| 2026-05-04 14:11 | 35.56701 | 30.33449 | 33299 ft | 415 kts | 294° |
| 2026-05-04 14:12 | 35.57908 | 30.30215 | 33576 ft | 418 kts | 294° |
| 2026-05-04 14:12 | 35.59114 | 30.26949 | 33815 ft | 421 kts | 294° |
| 2026-05-04 14:13 | 35.62765 | 30.16995 | 33863 ft | 428 kts | 294° |
| 2026-05-04 14:13 | 35.65216 | 30.10309 | 33857 ft | 430 kts | 294° |
| 2026-05-04 14:14 | 35.67661 | 30.03629 | 33865 ft | 430 kts | 294° |
| 2026-05-04 14:14 | 35.71356 | 29.93516 | 33875 ft | 432 kts | 294° |
| 2026-05-04 14:15 | 35.76279 | 29.79998 | 33866 ft | 433 kts | 294° |
| 2026-05-04 14:16 | 35.79960 | 29.69833 | 33878 ft | 433 kts | 294° |
| 2026-05-04 14:17 | 35.83618 | 29.59705 | 33881 ft | 430 kts | 294° |
| 2026-05-04 14:18 | 35.87268 | 29.49590 | 33864 ft | 431 kts | 294° |
| 2026-05-04 14:19 | 35.91719 | 29.37179 | 33876 ft | 433 kts | 294° |
| 2026-05-04 14:19 | 35.94534 | 29.29300 | 33895 ft | 431 kts | 294° |
| 2026-05-04 14:20 | 35.96559 | 29.23621 | 33891 ft | 432 kts | 294° |
| 2026-05-04 14:20 | 35.98985 | 29.16811 | 33881 ft | 434 kts | 294° |
| 2026-05-04 14:21 | 36.02630 | 29.06567 | 33923 ft | 435 kts | 294° |
| 2026-05-04 14:21 | 36.05051 | 28.99716 | 33935 ft | 434 kts | 294° |
| 2026-05-04 14:22 | 36.07471 | 28.92881 | 33929 ft | 434 kts | 294° |
| 2026-05-04 14:22 | 36.09889 | 28.86047 | 33919 ft | 434 kts | 294° |
| 2026-05-04 14:23 | 36.13496 | 28.75768 | 33949 ft | 434 kts | 294° |
| 2026-05-04 14:24 | 36.15895 | 28.68913 | 33958 ft | 434 kts | 294° |
| 2026-05-04 14:24 | 36.18293 | 28.62069 | 33959 ft | 434 kts | 294° |
| 2026-05-04 14:25 | 36.20689 | 28.55213 | 33933 ft | 435 kts | 294° |
| 2026-05-04 14:25 | 36.24298 | 28.44854 | 33950 ft | 438 kts | 294° |
| 2026-05-04 14:26 | 36.26706 | 28.37925 | 33986 ft | 438 kts | 294° |
| 2026-05-04 14:26 | 36.29110 | 28.30987 | 33968 ft | 439 kts | 294° |
| 2026-05-04 14:27 | 36.31513 | 28.24019 | 33972 ft | 440 kts | 294° |
| 2026-05-04 14:27 | 36.33917 | 28.17040 | 33981 ft | 440 kts | 294° |
| 2026-05-04 14:28 | 36.36312 | 28.10088 | 34004 ft | 441 kts | 294° |
| 2026-05-04 14:28 | 36.38712 | 28.03085 | 33996 ft | 441 kts | 294° |
| 2026-05-04 14:29 | 36.43490 | 27.89103 | 34010 ft | 440 kts | 294° |
| 2026-05-04 14:30 | 36.45897 | 27.82062 | 34014 ft | 440 kts | 294° |
| 2026-05-04 14:31 | 36.49448 | 27.71615 | 34020 ft | 439 kts | 294° |
| 2026-05-04 14:32 | 36.54192 | 27.57571 | 34027 ft | 439 kts | 294° |
| 2026-05-04 14:32 | 36.56538 | 27.50606 | 34024 ft | 439 kts | 294° |
| 2026-05-04 14:33 | 36.58900 | 27.43602 | 34024 ft | 439 kts | 294° |
| 2026-05-04 14:33 | 36.61259 | 27.36591 | 34026 ft | 439 kts | 294° |
| 2026-05-04 14:34 | 36.63613 | 27.29579 | 34027 ft | 439 kts | 294° |
| 2026-05-04 14:34 | 36.65957 | 27.22564 | 34032 ft | 439 kts | 294° |
| 2026-05-04 14:35 | 36.68289 | 27.15534 | 34038 ft | 439 kts | 294° |
| 2026-05-04 14:35 | 36.70616 | 27.08501 | 34042 ft | 439 kts | 294° |
| 2026-05-04 14:36 | 36.72954 | 27.01454 | 34041 ft | 440 kts | 294° |
| 2026-05-04 14:36 | 36.75293 | 26.94402 | 34042 ft | 440 kts | 294° |
| 2026-05-04 14:37 | 36.77622 | 26.87356 | 34039 ft | 440 kts | 294° |
| 2026-05-04 14:37 | 36.79953 | 26.80296 | 34033 ft | 440 kts | 294° |
| 2026-05-04 14:38 | 36.82276 | 26.73229 | 34039 ft | 440 kts | 294° |
| 2026-05-04 14:38 | 36.84588 | 26.66169 | 34047 ft | 440 kts | 294° |
| 2026-05-04 14:39 | 36.86906 | 26.59091 | 34055 ft | 440 kts | 294° |
| 2026-05-04 14:39 | 36.89213 | 26.52024 | 34044 ft | 440 kts | 294° |
| 2026-05-04 14:40 | 36.92665 | 26.41408 | 34054 ft | 440 kts | 294° |
| 2026-05-04 14:40 | 36.94961 | 26.34317 | 34065 ft | 440 kts | 294° |
| 2026-05-04 14:41 | 36.97248 | 26.27225 | 34068 ft | 440 kts | 294° |
| 2026-05-04 14:42 | 37.01804 | 26.13105 | 34087 ft | 438 kts | 294° |
| 2026-05-04 14:42 | 37.04093 | 26.05984 | 34082 ft | 438 kts | 294° |
| 2026-05-04 14:43 | 37.06350 | 25.98929 | 34071 ft | 440 kts | 294° |
| 2026-05-04 14:43 | 37.08625 | 25.91808 | 34055 ft | 441 kts | 294° |
| 2026-05-04 14:44 | 37.10905 | 25.84666 | 34066 ft | 442 kts | 294° |
| 2026-05-04 14:44 | 37.13179 | 25.77515 | 34078 ft | 442 kts | 294° |
| 2026-05-04 14:45 | 37.15443 | 25.70357 | 34092 ft | 442 kts | 294° |
| 2026-05-04 14:45 | 37.17710 | 25.63190 | 34079 ft | 442 kts | 294° |
| 2026-05-04 14:46 | 37.19971 | 25.56033 | 34116 ft | 440 kts | 294° |
| 2026-05-04 14:46 | 37.22209 | 25.48914 | 34126 ft | 438 kts | 294° |
| 2026-05-04 14:47 | 37.24440 | 25.41810 | 34131 ft | 437 kts | 294° |
| 2026-05-04 14:47 | 37.25541 | 25.38293 | 34027 ft | 423 kts | 294° |
| 2026-05-04 14:47 | 37.26580 | 25.34952 | 33839 ft | 401 kts | 294° |
| 2026-05-04 14:48 | 37.27574 | 25.31752 | 33260 ft | 388 kts | 294° |
| 2026-05-04 14:48 | 37.28550 | 25.28622 | 32525 ft | 381 kts | 294° |
| 2026-05-04 14:48 | 37.29514 | 25.25543 | 31711 ft | 378 kts | 294° |
| 2026-05-04 14:48 | 37.30478 | 25.22474 | 30852 ft | 378 kts | 294° |
| 2026-05-04 14:49 | 37.31441 | 25.19397 | 30002 ft | 379 kts | 294° |
| 2026-05-04 14:49 | 37.32405 | 25.16303 | 29088 ft | 378 kts | 294° |
| 2026-05-04 14:49 | 37.33355 | 25.13239 | 28294 ft | 376 kts | 293° |
| 2026-05-04 14:49 | 37.34293 | 25.10193 | 27531 ft | 372 kts | 293° |
| 2026-05-04 14:50 | 37.35223 | 25.07174 | 26777 ft | 369 kts | 293° |
| 2026-05-04 14:50 | 37.36147 | 25.04186 | 26055 ft | 365 kts | 293° |
| 2026-05-04 14:50 | 37.37038 | 25.01203 | 25340 ft | 363 kts | 292° |
| 2026-05-04 14:50 | 37.37856 | 24.98232 | 24626 ft | 360 kts | 290° |
| 2026-05-04 14:51 | 37.38643 | 24.95246 | 23917 ft | 358 kts | 290° |
| 2026-05-04 14:51 | 37.39423 | 24.92284 | 23135 ft | 356 kts | 290° |
| 2026-05-04 14:51 | 37.40198 | 24.89343 | 22390 ft | 352 kts | 290° |
| 2026-05-04 14:51 | 37.40959 | 24.86438 | 21689 ft | 348 kts | 290° |
| 2026-05-04 14:52 | 37.41710 | 24.83563 | 21004 ft | 343 kts | 290° |
| 2026-05-04 14:52 | 37.42444 | 24.80736 | 20331 ft | 339 kts | 290° |
| 2026-05-04 14:52 | 37.43167 | 24.77933 | 19675 ft | 334 kts | 290° |
| 2026-05-04 14:52 | 37.43878 | 24.75168 | 19049 ft | 330 kts | 290° |
| 2026-05-04 14:53 | 37.44575 | 24.72435 | 18431 ft | 326 kts | 290° |
| 2026-05-04 14:53 | 37.45260 | 24.69733 | 17742 ft | 323 kts | 290° |
| 2026-05-04 14:53 | 37.45934 | 24.67053 | 17050 ft | 319 kts | 290° |
| 2026-05-04 14:53 | 37.46596 | 24.64402 | 16388 ft | 316 kts | 290° |
| 2026-05-04 14:54 | 37.47247 | 24.61775 | 15746 ft | 313 kts | 290° |
| 2026-05-04 14:54 | 37.47889 | 24.59158 | 15107 ft | 312 kts | 290° |
| 2026-05-04 14:54 | 37.48524 | 24.56553 | 14770 ft | 311 kts | 290° |
| 2026-05-04 14:54 | 37.49156 | 24.53951 | 14437 ft | 309 kts | 290° |
| 2026-05-04 14:55 | 37.49779 | 24.51371 | 14104 ft | 308 kts | 290° |
| 2026-05-04 14:55 | 37.50399 | 24.48792 | 13765 ft | 306 kts | 290° |
| 2026-05-04 14:55 | 37.51012 | 24.46235 | 13415 ft | 304 kts | 290° |
| 2026-05-04 14:55 | 37.51625 | 24.43685 | 13070 ft | 302 kts | 290° |
| 2026-05-04 14:56 | 37.52230 | 24.41168 | 12739 ft | 300 kts | 290° |
| 2026-05-04 14:56 | 37.52833 | 24.38667 | 12413 ft | 297 kts | 290° |
| 2026-05-04 14:56 | 37.53436 | 24.36177 | 12060 ft | 296 kts | 290° |
| 2026-05-04 14:56 | 37.54033 | 24.33713 | 11735 ft | 294 kts | 290° |
| 2026-05-04 14:57 | 37.54628 | 24.31255 | 11414 ft | 291 kts | 290° |
| 2026-05-04 14:57 | 37.55210 | 24.28856 | 11097 ft | 289 kts | 290° |
| 2026-05-04 14:57 | 37.55798 | 24.26412 | 10799 ft | 287 kts | 290° |
| 2026-05-04 14:57 | 37.56368 | 24.24039 | 10495 ft | 285 kts | 290° |
| 2026-05-04 14:58 | 37.56935 | 24.21669 | 10228 ft | 282 kts | 290° |
| 2026-05-04 14:58 | 37.57495 | 24.19317 | 9928 ft | 279 kts | 290° |
| 2026-05-04 14:58 | 37.58051 | 24.16979 | 9586 ft | 275 kts | 290° |
| 2026-05-04 14:58 | 37.58421 | 24.15429 | 9195 ft | 273 kts | 290° |
| 2026-05-04 14:59 | 37.59142 | 24.12420 | 8438 ft | 267 kts | 290° |
| 2026-05-04 14:59 | 37.59690 | 24.10208 | 7890 ft | 262 kts | 294° |
| 2026-05-04 14:59 | 37.61487 | 24.06366 | 6794 ft | 251 kts | 305° |
| 2026-05-04 15:00 | 37.62454 | 24.04527 | 6170 ft | 251 kts | 305° |
| 2026-05-04 15:00 | 37.63425 | 24.02685 | 5556 ft | 251 kts | 305° |
| 2026-05-04 15:00 | 37.64386 | 24.00849 | 4957 ft | 251 kts | 305° |
| 2026-05-04 15:01 | 37.66291 | 23.97213 | 4036 ft | 239 kts | 305° |
| 2026-05-04 15:01 | 37.67178 | 23.95525 | 4000 ft | 223 kts | 305° |
| 2026-05-04 15:01 | 37.68032 | 23.93892 | 4008 ft | 223 kts | 305° |
| 2026-05-04 15:01 | 37.68886 | 23.92264 | 4003 ft | 222 kts | 305° |
| 2026-05-04 15:02 | 37.69739 | 23.90640 | 4002 ft | 222 kts | 305° |
| 2026-05-04 15:02 | 37.70594 | 23.89012 | 4003 ft | 222 kts | 305° |
| 2026-05-04 15:02 | 37.71447 | 23.87390 | 4003 ft | 222 kts | 305° |
| 2026-05-04 15:02 | 37.72304 | 23.85766 | 4002 ft | 222 kts | 307° |
| 2026-05-04 15:03 | 37.73437 | 23.84498 | 3962 ft | 218 kts | 336° |
| 2026-05-04 15:03 | 37.74899 | 23.84071 | 3685 ft | 216 kts | 353° |
| 2026-05-04 15:03 | 37.76362 | 23.83922 | 3553 ft | 207 kts | 355° |
| 2026-05-04 15:03 | 37.77775 | 23.83817 | 3429 ft | 199 kts | 355° |
| 2026-05-04 15:04 | 37.79128 | 23.83721 | 3292 ft | 190 kts | 355° |
| 2026-05-04 15:04 | 37.80418 | 23.83680 | 3162 ft | 184 kts | 4° |
| 2026-05-04 15:04 | 37.81240 | 23.83937 | 3048 ft | 183 kts | 20° |
| 2026-05-04 15:04 | 37.82319 | 23.84800 | 2843 ft | 185 kts | 33° |
| 2026-05-04 15:05 | 37.83338 | 23.85768 | 2592 ft | 179 kts | 33° |
| 2026-05-04 15:05 | 37.84298 | 23.86679 | 2398 ft | 166 kts | 34° |
| 2026-05-04 15:05 | 37.85177 | 23.87513 | 2161 ft | 151 kts | 33° |
| 2026-05-04 15:05 | 37.85987 | 23.88281 | 1983 ft | 141 kts | 32° |
| 2026-05-04 15:06 | 37.86764 | 23.89017 | 1786 ft | 138 kts | 33° |
| 2026-05-04 15:06 | 37.87529 | 23.89743 | 1588 ft | 135 kts | 33° |
| 2026-05-04 15:06 | 37.88289 | 23.90462 | 1415 ft | 137 kts | 32° |
| 2026-05-04 15:07 | 37.89797 | 23.91894 | 1027 ft | 136 kts | 37° |
| 2026-05-04 15:07 | 37.90558 | 23.92617 | 830 ft | 138 kts | 37° |
| 2026-05-04 15:07 | 37.91332 | 23.93352 | 634 ft | 139 kts | 43° |
| 2026-05-04 15:07 | 37.92116 | 23.94096 | 432 ft | 141 kts | 43° |
| 2026-05-04 15:08 | 37.92897 | 23.94843 | 311 ft | 141 kts | 40° |
| 2026-05-04 15:08 | 37.93593 | 23.95511 | 284 ft | 106 kts | 37° |
| 2026-05-04 15:08 | 37.94045 | 23.95935 | 284 ft | 56 kts | 36° |
| 2026-05-04 15:08 | 37.94269 | 23.96143 | 286 ft | 36 kts | 38° |
| 2026-05-04 15:09 | 37.94446 | 23.96281 | 291 ft | 27 kts | 19° |
| 2026-05-04 15:09 | 37.94590 | 23.96320 | 299 ft | 11 kts | 5° |
| 2026-05-04 15:09 | 37.94646 | 23.96300 | 301 ft | 7 kts | 288° |
| 2026-05-04 15:10 | 37.94610 | 23.96192 | 299 ft | 10 kts | 218° |
| 2026-05-04 15:10 | 37.94540 | 23.96127 | 302 ft | 15 kts | 216° |
| 2026-05-04 15:10 | 37.94319 | 23.95917 | 299 ft | 23 kts | 217° |
| 2026-05-04 15:11 | 37.94181 | 23.95789 | 298 ft | 26 kts | 216° |
| 2026-05-04 15:11 | 37.94046 | 23.95660 | 299 ft | 22 kts | 217° |
| 2026-05-04 15:11 | 37.93919 | 23.95541 | 298 ft | 24 kts | 217° |
| 2026-05-04 15:11 | 37.93851 | 23.95428 | 297 ft | 15 kts | 276° |
| 2026-05-04 15:12 | 37.93882 | 23.95307 | 300 ft | 15 kts | 255° |
| 2026-05-04 15:12 | 37.93832 | 23.95183 | 300 ft | 12 kts | 225° |
| 2026-05-04 15:12 | 37.93760 | 23.95115 | 300 ft | 14 kts | 218° |
| 2026-05-04 15:12 | 37.93696 | 23.95051 | 303 ft | 12 kts | 217° |
| 2026-05-04 15:13 | 37.93652 | 23.95002 | 302 ft | 6 kts | 254° |
| 2026-05-04 15:13 | 37.93668 | 23.94964 | 301 ft | 2 kts | 307° |
| 2026-05-04 15:13 | 37.93679 | 23.94948 | 301 ft | 1 kts | 310° |
| 2026-05-04 15:13 | 37.93687 | 23.94934 | 303 ft | 1 kts | 307° |
| 2026-05-04 15:14 | 37.93693 | 23.94924 | 301 ft | 1 kts | 306° |